Abiquiu, NM

8:50 AM MDT on April 01, 2015 (GMT -0600)
Plaza Blanca | | Change Station
CLOSE
Current Station
Personal Weather Station
Location: Abiquiu, NM
Elevation: 6154 ft
Nearby Weather Stations
Active Advisory: Fire Weather Warning

Elev 6154 ft 36.22 °N, 106.28 °W | Updated 41 seconds ago

Clear
Clear
49.0 °F
Feels Like 49 °F
N
2.7
Wind Variable Wind from East
Gusts 4.5 mph

Today
High -- | Low -- °F
--% Chance of Precip.
Yesterday
High -- | Low -- °F
Precip. -- in
6:51 AM 7:26 PM
Waxing Gibbous, 93% visible
Pressure 30.07 in
Visibility 10.0 miles
Clouds Clear
Windchill 49 °F
Dew Point 27 °F
Humidity 42%
Rainfall 0.00 in
Snow Depth Not available.
UV 2 out of 12
Pollen 11.00 out of 12
Air Quality Not available.
Flu Activity Not available.
METAR KLAM 011435Z AUTO 24010G24KT 210V270 10SM CLR 12/M04 A3007 RMK AO2 T01211036

More Conditions Fewer Conditions

Pressure 30.07 in
Visibility 10.0 miles
Clouds Clear
Windchill 49 °F
Dew Point 27 °F
Humidity 42%
Rainfall 0.00 in
Snow Depth Not available.
UV 2 out of 12
Pollen 11.00 out of 12
Air Quality Not available.
Flu Activity Not available.
METAR KLAM 011435Z AUTO 24010G24KT 210V270 10SM CLR 12/M04 A3007 RMK AO2 T01211036

More Conditions Fewer Conditions

10-Day Weather Forecast

Almanac

Astronomy

Apr. 01, 2015 Rise Set
Actual Time
Civil Twilight
Nautical Twilight
Astronomical Twilight
Moon
Length of Visible Light
Length of Day
Tomorrow will be .
, % of the Moon is Illuminated

Today's Extremes

State Highs State Lows

Community

WunderPhotos

Upload Photos

1,809,974 photos uploaded!

WunderBlogs® & News

Nearby

Air Quality

  Air Quality AQ Index Pollutant
Not available.

Snow Depth

Station Depth Elevation

Earthquake Activity

City Distance Mag. Time & Date
Minimum magnitude displayed is 2.5.

Coastal Water Temperatures

Place Temperature

Stations

Nearby Weather Stations

Station Location Temp. Windchill Dew Point Humidity Wind Precip. Elev Updated Type
                   
Fire Weather Warning
Statement as of 6:03 AM MDT on April 01, 2015

... Red flag warning remains in effect from 11 am to 9 PM MDT
Thursday...

A red flag warning remains in effect from 11 am to 9 PM MDT
Thursday.

* Area and timing... this includes the north central mountains
and west Central Highlands below below significant snow pack as
well as the Rio Grande Valley late Thursday morning through
early evening.

* 20 foot winds... westerly 20 to 30 mph with gusts to 45 mph.

* Relative humidity... minimums between 5 and 8 percent lowlands
and 9 to 15 percent Highlands.

* Impacts... any fires that develop will likely spread rapidly.
Outdoor burning is not recommended.

Precautionary/preparedness actions...

Please advise the appropriate officials or fire crews in the
field of this red flag warning.